Kezdőlap
METAR-TAF:

METAR-TAF

Repülőterek :

Hartness State Airport

Springfield, Vermont, Amerikai Egyesült Államok

földrajzi szélesség: 43-20-33N, földrajzi hosszúság: 072-31-18W, magasság: 175 m

Jelenlegi meteorológiai megfigyelések

A jelentés 19 perccel ezelõtt készült, 18:54 UTC
Nyugati szél 10 kt széllökések: 18 kt, délnyugati és nyugat-északnyugati között változik
Hőmérséklet 3°C
Páratartalom 70%
Légköri nyomás 1002 hPa
Látótávolság: 16.1 km
Szakadozott felhőzet 2400 lábon
Borult 3500 lábon
ismeretlen

METAR: KVSF 151854Z AUTO 26010G18KT 220V300 10SM UP BKN024 OVC035 03/M02 A2960 RMK AO2 PK WND 27030/1805 RAB29E38UPB42SNB38E42B46E47 SLP027 P0000 T00281017

Idő: 14:13 (19:13 UTC)


TAF: hiányzik

Meteorológiai megfigyelések és előrejelzések több, mint 4000 repülőtéren (METAR és TAF jelentéseket).

A térképen piros és sárga pontok jelzik az elérhető meteorológiai állomásokat.

Mozgassa az egeret a pont fölött, hogy megjelenjen az állomás neve.

Azután kattintson az időjárási megfigyelések és előrejelzések megtekintéséhez.

A térkép megváltoztatása: kattintson a fekete keresztel jelölt zöld gombra ráközelítéshez, a vonallal jelölt zöld gombra távolításhoz, vagy a zöld nyilakra a szomszédos térképek eléréséhez.


METAR-TAF: